Iver, United Kingdom
Current Conditions -  °F | °C
As of 1:50 AM on Saturday 22 Nov 2014 (Local Time) from EGLL Reporting Station
Drizzle Drizzle  
Wind Chill: 10°   Ceiling: 800
Heat Index: 10°   Visibility: 1.8mi
Dew Point:   Wind: 2mph
Humidity: 94%   Direction: 150°SSE
Pressure: 29.88"   Gusts: NA
Location:  51.5°N, 0.5°W
Report Text: EGLL 220150Z 15002KT 3000 -DZ BKN008 10/09 Q1012 NOSIG
Loading
Personal Weather Stations






























Interactive Weather Map New forecast layout! Learn more

10-Day Weather Forecast

Advertisements
Track Severe Weather on mobile